< < Back
Terminal Aerodrome Forecast


Current Version              Previous Versions:   1  2  3  4  5  6  7  8  9  

Terminal Aerodrome Forecast

327
FTUS42 KCHS 260522
TAFCHS
TAF
KCHS 260522Z 2606/2706 25005KT P6SM SCT025
     FM261800 20010KT P6SM SCT045
     FM270030 20006KT P6SM FEW250=



Latest METAR

795
SAUS80 KWBC 260800 CCA
MTRCHS
METAR KCHS 260756Z 24003KT 10SM CLR 24/22 A3003 RMK AO2 SLP168
T02440222


USA.gov is the U.S. government's official web portal to all federal, state and local government web resources and services.